Etusivu
METAR-TAF:

METAR-TAF

Lentoasemat :

N'Djamena, Tšad

N’Djamenan kansainvälinen lentoasema

Leveyspiiri: 12-08N, Pituuspiiri: 015-02E, korkeus merenpinnasta: 295 m

Tämänhetkinen sää

Tämä raportti tehtiin 1 tunti ja 14 minuuttia sitten, kello 23.00 UTC
Tuuli 3 kn pohjoisesta
Lämpötila 32°C
Kosteus 20%
Ilmanpaine 1006 hPa
Näkyvyys: 8000 m

METAR: FTTJ 202300Z 01003KT 8000 NSC 32/06 Q1006 NOSIG

Aika: 01:14 (00:14 UTC)

Sääennuste

Tämä raportti tehtiin 1 tunti ja 14 minuuttia sitten, kello 23.00 UTC
Ennuste voimassa 21. päivästä klo 00 UTC - 22. päivään klo 06 UTC
Tuuli 5 kn lännestä
Näkyvyys: 8000 m
From 21. päivästä klo 1300 UTC
Tuuli 12 kn etelästä
Näkyvyys: 4000 m
Muutamia pilviä 4000 ft:n korkeudessa
laajalle levinnyttä pölyä
Todennäköisyys 30% :
Ajoittain
21. päivästä klo 14 UTC - 21. päivään klo 20 UTC
ukkosmyrsky

TAF: FTTJ 202300Z 2100/2206 28005KT 8000 NSC FM211300 17012KT 4000 DU FEW040 PROB30 TEMPO 2114/2120 TS

Säähavainnot ja -ennusteet yli 4000 lentoasemalta (METAR- ja TAF-raportit).

Käytössä olevat sääasemat on merkitty karttaan keltaisilla ja punaisilla pisteillä.

Aseta hiiri pisteen päälle nähdäksesi sääaseman nimen.

Klikkaa sitten nähdäksesi säähavainnot ja -ennusteet.

Kartan vaihtaminen: klikkaa mustalla rastilla varustettuja vihreitä pisteitä, niin voit zoomata sisään; viivalla varustettua vihreää pistettä, niin voit zoomata ulos tai vihreitä nuolia, niin pääset viereisille kartoille.


METAR-TAF: